createdAt,value
2023-02-18T00:04:53.269Z,31.58266
2023-02-18T00:09:54.170Z,31.63978
2023-02-18T00:14:55.088Z,31.77573
2023-02-18T00:19:56.061Z,31.91062
2023-02-18T00:24:56.983Z,31.9571
2023-02-18T00:29:57.960Z,32.1224
2023-02-18T00:34:58.942Z,32.01716
2023-02-18T00:39:59.922Z,32.11681
2023-02-18T00:45:00.885Z,32.10614
2023-02-18T00:50:01.795Z,32.19559
2023-02-18T00:55:02.761Z,32.24863
2023-02-18T01:00:03.693Z,32.34914
2023-02-18T01:05:04.777Z,32.37254
2023-02-18T01:10:05.986Z,32.32039
2023-02-18T01:15:06.991Z,32.28004
2023-02-18T01:20:07.926Z,32.2338
2023-02-18T01:25:08.927Z,32.13919
2023-02-18T01:30:10.015Z,32.19274
2023-02-18T01:35:11.005Z,32.31078
2023-02-18T01:40:11.932Z,32.56248
2023-02-18T01:45:12.822Z,32.66717
2023-02-18T01:50:13.804Z,32.5726
2023-02-18T01:55:14.737Z,32.62487
2023-02-18T02:00:15.636Z,32.60067
2023-02-18T02:05:16.556Z,32.63739
2023-02-18T02:10:17.489Z,32.68949
2023-02-18T02:15:18.414Z,32.77848
2023-02-18T02:20:19.454Z,32.67296
2023-02-18T02:25:20.379Z,32.63767
2023-02-18T02:30:22.275Z,32.69109
2023-02-18T02:35:23.246Z,32.85562
2023-02-18T02:40:26.089Z,32.8793
2023-02-18T02:45:28.472Z,32.76732
2023-02-18T02:50:29.440Z,32.63293
2023-02-18T02:55:30.506Z,32.52855
2023-02-18T03:00:31.413Z,32.36583
2023-02-18T03:05:32.332Z,32.33691
2023-02-18T03:10:33.278Z,32.42676
2023-02-18T03:15:34.236Z,32.35036
2023-02-18T03:20:35.127Z,32.28622
2023-02-18T03:25:36.051Z,32.22291
2023-02-18T03:30:36.997Z,32.05855
2023-02-18T03:35:38.177Z,31.97132
2023-02-18T03:40:39.505Z,31.73826
2023-02-18T03:45:40.770Z,31.61019
2023-02-18T03:50:42.022Z,31.46907
2023-02-18T03:55:42.954Z,31.36743
2023-02-18T04:00:43.896Z,31.38562
2023-02-18T04:05:44.831Z,31.34529
2023-02-18T04:10:45.969Z,31.34528
2023-02-18T04:15:46.895Z,31.41555
2023-02-18T04:20:47.840Z,31.32713
2023-02-18T04:25:48.863Z,31.32801
2023-02-18T04:30:49.876Z,31.2928
2023-02-18T04:35:50.829Z,31.362
2023-02-18T04:40:51.728Z,31.32718
2023-02-18T04:45:53.141Z,31.35718
2023-02-18T04:50:54.065Z,31.35591
2023-02-18T04:55:54.962Z,31.37896
2023-02-18T05:00:55.903Z,31.427
2023-02-18T05:05:57.060Z,31.4572
2023-02-18T05:10:57.978Z,31.57367
2023-02-18T05:15:58.930Z,31.47331
2023-02-18T05:20:59.809Z,31.47258
2023-02-18T05:26:00.763Z,31.4251
2023-02-18T05:31:01.843Z,31.34198
2023-02-18T05:36:04.011Z,31.23636
2023-02-18T05:41:05.006Z,31.22864
2023-02-18T05:46:06.234Z,31.06551
2023-02-18T05:51:07.331Z,31.01183
2023-02-18T05:56:08.501Z,31.01082
2023-02-18T06:01:09.574Z,30.84101
2023-02-18T06:06:10.812Z,30.79485
2023-02-18T06:11:11.939Z,30.77738
2023-02-18T06:16:12.936Z,30.86464
2023-02-18T06:21:13.854Z,30.84563
2023-02-18T06:26:14.810Z,30.77594
2023-02-18T06:31:15.882Z,30.79427
2023-02-18T06:36:16.872Z,30.73946
2023-02-18T06:41:17.794Z,30.70777
2023-02-18T06:46:18.815Z,30.6403
2023-02-18T06:51:19.793Z,30.63502
2023-02-18T06:56:20.741Z,30.61218
2023-02-18T07:01:21.674Z,30.67587
2023-02-18T07:06:22.635Z,30.57716
2023-02-18T07:11:23.838Z,30.58184
2023-02-18T07:16:24.830Z,30.51714
2023-02-18T07:21:25.764Z,30.45222
2023-02-18T07:26:26.787Z,30.65836
2023-02-18T07:31:27.766Z,31.04318
2023-02-18T07:36:28.784Z,31.28103
2023-02-18T07:41:29.734Z,31.54928
2023-02-18T07:46:30.641Z,31.82907
2023-02-18T07:51:31.626Z,32.11932
2023-02-18T07:56:32.525Z,32.27997
2023-02-18T08:01:33.662Z,32.59885
2023-02-18T08:06:34.633Z,32.94251
2023-02-18T08:11:35.615Z,33.05918
2023-02-18T08:16:36.635Z,33.08728
2023-02-18T08:21:37.637Z,33.23879
2023-02-18T08:26:41.070Z,33.2333
2023-02-18T08:31:47.358Z,33.47142
2023-02-18T08:36:48.321Z,33.59196
2023-02-18T08:41:49.334Z,33.74808
2023-02-18T08:46:50.289Z,34.03472
2023-02-18T08:51:51.289Z,34.24842
2023-02-18T08:56:52.242Z,34.39878
2023-02-18T09:01:53.183Z,34.4207
2023-02-18T09:06:54.146Z,34.53583
2023-02-18T09:11:55.096Z,34.64516
2023-02-18T09:16:56.137Z,34.6959
2023-02-18T09:21:59.126Z,34.72452
2023-02-18T09:27:01.427Z,34.67667
2023-02-18T09:32:02.374Z,34.89764
2023-02-18T09:37:03.330Z,34.73466
2023-02-18T09:42:04.278Z,35.01484
2023-02-18T09:47:05.297Z,34.87863
2023-02-18T09:52:06.473Z,35.07159
2023-02-18T09:57:07.375Z,35.16006
2023-02-18T10:02:08.405Z,35.34568
2023-02-18T10:07:09.328Z,35.4686
2023-02-18T10:12:10.291Z,35.80176
2023-02-18T10:17:11.333Z,36.05241
2023-02-18T10:22:14.064Z,36.31513
2023-02-18T10:27:16.331Z,36.57148
2023-02-18T10:32:17.300Z,36.79267
2023-02-18T10:37:18.238Z,36.97293
2023-02-18T10:42:19.224Z,36.85473
2023-02-18T10:47:20.135Z,36.91327
2023-02-18T10:52:21.134Z,36.95373
2023-02-18T10:57:22.037Z,37.02994
2023-02-18T11:02:22.970Z,37.10546
2023-02-18T11:07:23.906Z,37.14077
2023-02-18T11:12:24.874Z,37.46693
2023-02-18T11:17:25.862Z,37.2971
2023-02-18T11:22:26.810Z,37.68185
2023-02-18T11:27:27.732Z,37.72842
2023-02-18T11:32:28.703Z,37.74565
2023-02-18T11:37:29.680Z,37.88594
2023-02-18T11:42:30.664Z,38.09016
2023-02-18T11:47:31.580Z,38.31128
2023-02-18T11:52:32.515Z,38.30531
2023-02-18T11:57:33.429Z,38.41547
2023-02-18T12:02:34.362Z,38.59013
2023-02-18T12:07:35.651Z,38.93402
2023-02-18T12:12:36.560Z,39.06204
2023-02-18T12:17:37.648Z,39.15486
2023-02-18T12:22:38.894Z,39.36442
2023-02-18T12:27:40.147Z,39.60307
2023-02-18T12:32:41.390Z,39.81853
2023-02-18T12:37:42.312Z,39.98736
2023-02-18T12:42:43.272Z,40.33718
2023-02-18T12:47:44.224Z,40.91441
2023-02-18T12:52:45.413Z,41.18878
2023-02-18T12:57:46.389Z,41.3351
2023-02-18T13:02:47.386Z,41.35882
2023-02-18T13:07:48.525Z,41.30657
2023-02-18T13:12:49.462Z,41.31852
2023-02-18T13:17:50.530Z,41.65718
2023-02-18T13:22:51.491Z,41.94927
2023-02-18T13:27:52.410Z,42.19455
2023-02-18T13:32:53.332Z,42.01401
2023-02-18T13:37:54.351Z,41.91479
2023-02-18T13:42:55.342Z,41.93837
2023-02-18T13:47:56.277Z,41.96777
2023-02-18T13:52:57.291Z,42.1081
2023-02-18T13:57:58.264Z,42.03817
2023-02-18T14:02:59.305Z,42.30089
2023-02-18T14:08:00.287Z,42.35943
2023-02-18T14:13:01.337Z,42.32404
2023-02-18T14:18:02.299Z,42.3007
2023-02-18T14:23:03.281Z,42.31226
2023-02-18T14:28:04.238Z,42.49297
2023-02-18T14:33:05.183Z,42.47525
2023-02-18T14:38:06.154Z,42.16033
2023-02-18T14:43:07.237Z,42.03152
2023-02-18T14:48:08.188Z,41.78046
2023-02-18T14:53:09.168Z,41.90295
2023-02-18T14:58:10.098Z,41.72204
2023-02-18T15:03:11.074Z,41.69254
2023-02-18T15:08:12.228Z,41.47667
2023-02-18T15:13:13.278Z,41.22546
2023-02-18T15:18:14.223Z,40.65822
2023-02-18T15:23:15.221Z,40.76348
2023-02-18T15:28:16.175Z,40.705
2023-02-18T15:33:17.160Z,40.51788
2023-02-18T15:38:18.156Z,40.41263
2023-02-18T15:43:19.117Z,40.37753
2023-02-18T15:48:20.057Z,40.51794
2023-02-18T15:53:21.019Z,40.38345
2023-02-18T15:58:21.955Z,40.6173
2023-02-18T16:03:23.059Z,41.04396
2023-02-18T16:08:23.978Z,41.52291
2023-02-18T16:13:26.733Z,41.80904
2023-02-18T16:18:28.148Z,42.18811
2023-02-18T16:23:29.101Z,42.08894
2023-02-18T16:28:30.043Z,42.03663
2023-02-18T16:33:31.040Z,41.83809
2023-02-18T16:38:31.964Z,41.86145
2023-02-18T16:43:32.927Z,41.87325
2023-02-18T16:48:33.915Z,41.86681
2023-02-18T16:53:34.834Z,41.98878
2023-02-18T16:58:35.787Z,41.814
2023-02-18T17:03:36.721Z,42.39657
2023-02-18T17:08:37.638Z,42.56514
2023-02-18T17:13:38.732Z,42.56552
2023-02-18T17:18:39.917Z,42.14003
2023-02-18T17:23:41.095Z,42.27418
2023-02-18T17:28:42.277Z,41.80735
2023-02-18T17:33:43.242Z,41.2121
2023-02-18T17:38:44.150Z,41.0314
2023-02-18T17:43:45.076Z,40.99047
2023-02-18T17:48:45.984Z,40.57045
2023-02-18T17:53:47.021Z,40.22058
2023-02-18T17:58:47.996Z,40.19727
2023-02-18T18:03:48.965Z,39.99897
2023-02-18T18:08:50.012Z,39.88823
2023-02-18T18:13:50.954Z,39.70146
2023-02-18T18:18:52.028Z,39.47414
2023-02-18T18:23:52.951Z,39.23521
2023-02-18T18:28:53.964Z,39.14201
2023-02-18T18:33:54.908Z,38.99061
2023-02-18T18:38:55.869Z,38.93259
2023-02-18T18:43:56.855Z,38.80496
2023-02-18T18:48:57.747Z,39.073
2023-02-18T18:53:59.248Z,38.71759
2023-02-18T18:59:00.531Z,38.84041
2023-02-18T19:04:01.592Z,38.74108
2023-02-18T19:09:02.571Z,38.61895
2023-02-18T19:14:03.500Z,38.52637
2023-02-18T19:19:04.455Z,38.579
2023-02-18T19:24:05.396Z,38.6663
2023-02-18T19:29:06.336Z,38.70658
2023-02-18T19:34:07.297Z,38.44443
2023-02-18T19:39:08.375Z,38.44484
2023-02-18T19:44:09.384Z,38.57336
2023-02-18T19:49:10.325Z,38.29374
2023-02-18T19:54:11.282Z,38.36407
2023-02-18T19:59:12.224Z,38.44033
2023-02-18T20:04:13.152Z,38.34203
2023-02-18T20:09:14.060Z,38.4759
2023-02-18T20:14:15.048Z,38.41757
2023-02-18T20:19:15.940Z,38.03923
2023-02-18T20:24:16.881Z,38.04506
2023-02-18T20:29:18.077Z,37.97577
2023-02-18T20:34:19.006Z,38.08013
2023-02-18T20:39:19.959Z,38.0628
2023-02-18T20:44:20.897Z,38.13839
2023-02-18T20:49:21.829Z,38.14348
2023-02-18T20:54:22.767Z,38.02652
2023-02-18T20:59:23.700Z,38.1085
2023-02-18T21:04:24.713Z,38.00987
2023-02-18T21:09:25.631Z,37.99224
2023-02-18T21:14:26.582Z,37.9455
2023-02-18T21:19:27.492Z,37.93944
2023-02-18T21:24:28.793Z,37.88673
2023-02-18T21:29:29.724Z,37.95677
2023-02-18T21:34:30.672Z,37.93931
2023-02-18T21:39:31.618Z,37.9281
2023-02-18T21:44:41.914Z,37.97478
2023-02-18T21:49:43.762Z,37.99748
2023-02-18T21:54:44.923Z,38.08486
2023-02-18T21:59:45.976Z,37.96811
2023-02-18T22:04:47.034Z,38.0672
2023-02-18T22:09:48.687Z,38.11981
2023-02-18T22:14:49.699Z,37.99169
2023-02-18T22:19:50.681Z,38.03826
2023-02-18T22:24:51.653Z,37.86345
2023-02-18T22:29:52.534Z,37.71256
2023-02-18T22:34:53.520Z,37.724
2023-02-18T22:39:54.492Z,37.81727
2023-02-18T22:44:55.402Z,37.69487
2023-02-18T22:49:56.348Z,37.73
2023-02-18T22:54:57.287Z,37.53749
2023-02-18T22:59:58.179Z,37.73576
2023-02-18T23:04:59.158Z,37.6773
2023-02-18T23:10:00.240Z,37.64857
2023-02-18T23:15:01.213Z,37.6369
2023-02-18T23:20:02.101Z,37.58481
2023-02-18T23:25:03.114Z,37.5037
2023-02-18T23:30:04.095Z,37.39326
2023-02-18T23:35:04.991Z,37.40483
2023-02-18T23:40:05.919Z,37.34084
2023-02-18T23:45:06.856Z,37.28942
2023-02-18T23:50:07.765Z,37.37666
2023-02-18T23:55:08.733Z,37.35463
